Tebbetts, MO

5:07 AM CDT on May 23, 2015 (GMT -0500)
Ken Larr Hills @ The Ginter's | | Change Station
CLOSE
Current Station
Personal Weather Station
Location: Holts Summit, MO
Elevation: 725 ft
Nearby Weather Stations
Active Advisory: Flood Warning

Elev 725 ft 38.60 °N, 92.05 °W | Updated 6 minutes ago

Overcast
Overcast
55.8 °F
Feels Like 55.8 °F
N
0.0
Wind Variable Wind from SSW

Today
High -- | Low -- °F
--% Chance of Precip.
Yesterday
High -- | Low -- °F
Precip. -- in
5:49 AM 8:19 PM
Waxing Crescent, 28% visible
Pressure 30.23 in
Visibility 10.0 miles
Clouds Overcast 8000 ft
Dew Point 55 °F
Humidity 98%
Rainfall 0.00 in
Snow Depth Not available.
UV 0 out of 12
Pollen 8.50 out of 12
Air Quality Not available.
Flu Activity Sporadic
METAR KJEF 230953Z AUTO 13004KT 10SM OVC080 16/12 A3026 RMK AO2 SLP236 T01560122 TSNO

More Conditions Fewer Conditions

Pressure 30.23 in
Visibility 10.0 miles
Clouds Overcast 8000 ft
Dew Point 55 °F
Humidity 98%
Rainfall 0.00 in
Snow Depth Not available.
UV 0 out of 12
Pollen 8.50 out of 12
Air Quality Not available.
Flu Activity Sporadic
METAR KJEF 230953Z AUTO 13004KT 10SM OVC080 16/12 A3026 RMK AO2 SLP236 T01560122 TSNO

More Conditions Fewer Conditions

10-Day Weather Forecast

Almanac

Astronomy

May. 23, 2015 Rise Set
Actual Time
Civil Twilight
Nautical Twilight
Astronomical Twilight
Moon
Length of Visible Light
Length of Day
Tomorrow will be .
, % of the Moon is Illuminated

Today's Extremes

State Highs State Lows

Community

WunderPhotos

Upload Photos

1,823,405 photos uploaded!

WunderBlogs® & News

Nearby

Air Quality

  Air Quality AQ Index Pollutant
Not available.

Snow Depth

Station Depth Elevation

Earthquake Activity

City Distance Mag. Time & Date
Minimum magnitude displayed is 2.5.

Coastal Water Temperatures

Place Temperature

Stations

Nearby Weather Stations

Station Location Temp. Windchill Dew Point Humidity Wind Precip. Elev Updated Type
                   
Flood Warning
Statement as of 10:22 AM CDT on May 22, 2015

The Flood Warning continues for
the Missouri River near Chamois.
* At 7 am Friday the stage was 18.1 feet.
* Flood stage is 17.0 feet.
* Minor flooding is occurring.
* Forecast: the river will fall below flood stage by tomorrow afternoon.
* Impact: at 17.0 feet... lower lying bottom land begins to flood.

                   Fld latest 7 a.M. Forecast
location stg obs stg 05/23 05/24 05/25 05/26 05/27

Missouri River
Chamois 17.0 18.10 17.5 15.8 14.3 12.9 11.5




Lat... Lon 3864 9198 3855 9192 3868 9164 3873 9164
      3871 9185